Time;durP1;ratioP1;P1;durP2;ratioP2;P2;SDS_P1;SDS_P2;PMS_P1;PMS_P2;Temp;Humidity;BMP_temperature;BMP_pressure;BME280_temperature;BME280_humidity;BME280_pressure;Samples;Min_cycle;Max_cycle;Signal;HPM_P1;HPM_P2
2021/05/24 00:02:08;;;;;;;10.83;7.55;;;;;;;9.92;72.96;100796.59;127964;1104;22356;-77
2021/05/24 00:04:39;;;;;;;12.78;8.13;;;;;;;9.93;73.14;100798.27;128062;1101;24488;-76
2021/05/24 00:07:09;;;;;;;14.23;8.70;;;;;;;9.95;72.92;100801.56;128234;1101;22349;-76
2021/05/24 00:09:39;;;;;;;10.23;7.68;;;;;;;9.96;72.89;100802.39;128210;1098;22746;-76
2021/05/24 00:12:10;;;;;;;12.30;9.23;;;;;;;9.96;72.77;100799.75;128060;1098;24728;-77
2021/05/24 00:14:41;;;;;;;9.90;7.55;;;;;;;9.94;72.87;100805.20;127954;1101;22606;-77
2021/05/24 00:17:11;;;;;;;12.15;7.05;;;;;;;9.92;72.69;100808.97;128056;1101;24508;-76
2021/05/24 00:19:41;;;;;;;10.33;7.65;;;;;;;9.88;72.58;100811.91;128024;1101;25032;-76
2021/05/24 00:22:10;;;;;;;10.25;7.88;;;;;;;9.86;72.55;100813.03;127986;1104;22436;-75
2021/05/24 00:24:40;;;;;;;11.95;7.48;;;;;;;9.84;72.54;100821.11;127531;1104;22931;-76
2021/05/24 00:27:12;;;;;;;9.98;7.28;;;;;;;9.81;72.35;100815.31;127503;1107;23712;-76
2021/05/24 00:29:42;;;;;;;10.80;7.38;;;;;;;9.77;72.52;100819.23;127556;1105;22421;-76
2021/05/24 00:32:13;;;;;;;10.10;7.63;;;;;;;9.71;72.69;100820.66;127556;1104;25138;-77
2021/05/24 00:34:44;;;;;;;11.30;7.57;;;;;;;9.66;72.60;100820.27;128027;1105;22339;-76
2021/05/24 00:37:14;;;;;;;9.30;7.15;;;;;;;9.63;72.81;100815.32;127990;1104;22366;-76
2021/05/24 00:39:44;;;;;;;11.15;8.28;;;;;;;9.61;72.79;100812.81;127985;1101;22462;-76
2021/05/24 00:42:14;;;;;;;16.85;9.73;;;;;;;9.58;72.57;100820.20;128021;1102;22390;-76
2021/05/24 00:44:44;;;;;;;11.73;8.88;;;;;;;9.53;72.22;100822.44;128221;1101;22370;-77
2021/05/24 00:47:14;;;;;;;11.55;8.60;;;;;;;9.51;72.69;100812.05;128235;1101;22361;-77
2021/05/24 00:49:44;;;;;;;10.23;8.85;;;;;;;9.52;72.90;100811.07;128238;1098;24488;-77
2021/05/24 00:52:15;;;;;;;12.10;9.13;;;;;;;9.52;72.82;100815.52;128301;1101;22372;-77
2021/05/24 00:54:45;;;;;;;10.57;8.03;;;;;;;9.50;72.93;100812.22;128232;1101;22459;-77
2021/05/24 00:57:16;;;;;;;12.48;8.83;;;;;;;9.49;72.88;100821.91;128240;1098;22364;-77
2021/05/24 00:59:45;;;;;;;11.37;8.97;;;;;;;9.45;72.77;100819.73;128252;1101;22466;-76
2021/05/24 01:02:15;;;;;;;13.43;9.53;;;;;;;9.40;72.49;100823.66;128247;1098;22374;-77
2021/05/24 01:04:45;;;;;;;11.98;9.38;;;;;;;9.36;73.04;100831.99;128220;1100;22688;-76
2021/05/24 01:07:15;;;;;;;19.80;12.10;;;;;;;9.33;72.91;100832.28;128273;1098;22446;-76
2021/05/24 01:09:45;;;;;;;19.23;12.70;;;;;;;9.30;73.17;100827.34;128265;1101;22365;-76
2021/05/24 01:12:15;;;;;;;19.13;12.53;;;;;;;9.27;72.94;100822.36;128032;1098;24325;-76
2021/05/24 01:14:45;;;;;;;19.28;12.33;;;;;;;9.26;73.09;100823.31;128006;1098;24581;-76
2021/05/24 01:17:15;;;;;;;23.40;13.98;;;;;;;9.25;73.02;100825.13;128224;1101;22370;-76
2021/05/24 01:19:47;;;;;;;21.43;12.48;;;;;;;9.26;73.25;100824.13;128223;1101;22368;-76
2021/05/24 01:22:20;;;;;;;26.08;14.03;;;;;;;9.25;73.09;100813.75;128250;1101;22475;-77
2021/05/24 01:24:50;;;;;;;28.65;15.40;;;;;;;9.22;73.04;100811.41;127969;1101;22459;-77
2021/05/24 01:27:20;;;;;;;25.38;14.78;;;;;;;9.16;72.85;100829.48;127980;1104;22350;-76
2021/05/24 01:29:50;;;;;;;23.45;14.13;;;;;;;9.11;72.94;100828.26;127931;1101;22352;-76
2021/05/24 01:32:20;;;;;;;22.88;13.15;;;;;;;9.04;73.00;100827.19;127950;1104;22370;-76
2021/05/24 01:34:50;;;;;;;16.70;10.90;;;;;;;8.92;72.83;100826.53;127937;1104;22350;-75
2021/05/24 01:37:21;;;;;;;16.10;12.30;;;;;;;8.79;72.99;100820.77;127963;1104;22376;-76
2021/05/24 01:39:51;;;;;;;15.40;9.53;;;;;;;8.66;73.22;100823.72;127956;1104;22352;-75
2021/05/24 01:42:21;;;;;;;12.95;10.00;;;;;;;8.60;73.60;100813.78;128037;1102;22362;-78
2021/05/24 01:44:51;;;;;;;15.28;10.58;;;;;;;8.59;73.73;100820.83;128209;1101;22390;-78
2021/05/24 01:47:21;;;;;;;13.38;9.93;;;;;;;8.58;73.93;100824.44;127981;1104;22492;-76
2021/05/24 01:49:51;;;;;;;14.38;9.73;;;;;;;8.54;73.87;100830.97;127603;1105;22387;-75
2021/05/24 01:52:21;;;;;;;16.08;10.25;;;;;;;8.51;73.95;100830.44;127596;1102;24504;-76
2021/05/24 01:54:51;;;;;;;14.03;10.68;;;;;;;8.46;74.08;100822.94;127465;1105;24750;-75
2021/05/24 01:57:21;;;;;;;13.48;10.35;;;;;;;8.40;73.97;100818.27;127530;1105;22485;-76
2021/05/24 01:59:51;;;;;;;12.43;10.38;;;;;;;8.32;74.30;100823.36;126941;1108;22515;-76
2021/05/24 02:02:21;;;;;;;12.63;10.60;;;;;;;8.28;74.52;100821.99;126900;1111;22381;-75
2021/05/24 02:04:51;;;;;;;12.98;9.58;;;;;;;8.25;74.24;100826.55;126953;1108;24268;-76
2021/05/24 02:07:21;;;;;;;11.53;9.93;;;;;;;8.22;74.84;100828.64;127081;1106;22447;-77
2021/05/24 02:09:51;;;;;;;13.95;9.58;;;;;;;8.17;74.94;100822.98;127589;1104;24268;-76
2021/05/24 02:12:20;;;;;;;12.20;10.95;;;;;;;8.11;74.76;100824.37;127617;1104;22386;-76
2021/05/24 02:14:52;;;;;;;13.08;9.90;;;;;;;8.08;74.96;100816.75;127562;1105;23240;-76
2021/05/24 02:17:22;;;;;;;;;;;;;;;8.01;74.86;100827.00;127790;1104;22380;-77
2021/05/24 02:19:53;;;;;;;10.10;8.38;;;;;;;7.94;75.02;100819.81;127614;1101;21278;-76
2021/05/24 02:22:23;;;;;;;12.67;10.07;;;;;;;7.91;75.25;100820.09;127937;1104;22373;-76
2021/05/24 02:24:53;;;;;;;11.95;8.50;;;;;;;7.85;75.30;100824.09;127702;1101;22418;-76
2021/05/24 02:27:23;;;;;;;12.48;9.48;;;;;;;7.78;75.44;100825.63;127989;1104;22367;-76
2021/05/24 02:29:52;;;;;;;11.73;9.23;;;;;;;7.72;75.41;100828.80;127992;1104;22436;-76
2021/05/24 02:32:22;;;;;;;10.58;8.95;;;;;;;7.71;75.95;100822.71;127585;1104;22690;-77
2021/05/24 02:34:52;;;;;;;12.25;7.95;;;;;;;7.73;76.06;100819.93;127549;1105;22378;-77
2021/05/24 02:37:23;;;;;;;11.85;9.30;;;;;;;7.78;76.22;100822.99;127421;1107;22414;-77
2021/05/24 02:39:53;;;;;;;9.80;8.80;;;;;;;7.83;76.09;100820.80;127588;1107;22366;-77
2021/05/24 02:42:25;;;;;;;10.23;9.15;;;;;;;7.85;76.34;100816.20;127487;1107;22721;-77
2021/05/24 02:44:55;;;;;;;;;;;;;;;7.72;75.27;100823.54;127637;1107;22395;-75
2021/05/24 02:47:25;;;;;;;9.38;8.45;;;;;;;7.66;75.91;100826.71;127552;1105;21280;-75
2021/05/24 02:49:55;;;;;;;11.78;9.33;;;;;;;7.67;76.19;100828.39;127989;1101;24498;-76
2021/05/24 02:52:24;;;;;;;11.55;9.68;;;;;;;7.63;75.97;100833.10;127974;1098;22957;-77
2021/05/24 02:54:54;;;;;;;10.10;9.08;;;;;;;7.60;76.21;100829.88;128256;1101;22388;-77
2021/05/24 02:57:24;;;;;;;9.75;7.75;;;;;;;7.57;76.07;100824.93;128257;1101;22462;-76
2021/05/24 02:59:54;;;;;;;14.98;8.68;;;;;;;7.55;76.44;100831.13;128275;1101;22770;-77
2021/05/24 03:02:28;;;;;;;10.40;8.48;;;;;;;7.55;76.47;100839.02;128273;1098;25047;-77
2021/05/24 03:04:58;;;;;;;10.65;8.00;;;;;;;7.57;76.71;100833.64;128070;1098;24494;-76
2021/05/24 03:07:28;;;;;;;9.77;7.33;;;;;;;7.61;76.81;100834.20;128255;1101;22389;-76
2021/05/24 03:09:59;;;;;;;10.00;7.77;;;;;;;7.65;76.93;100839.03;128286;1101;22361;-76
2021/05/24 03:12:29;;;;;;;9.93;8.48;;;;;;;7.68;76.78;100843.20;128250;1101;22394;-76
2021/05/24 03:14:58;;;;;;;8.55;7.48;;;;;;;7.69;76.71;100850.11;128250;1101;22364;-76
2021/05/24 03:17:30;;;;;;;10.57;7.73;;;;;;;7.70;76.75;100846.53;128225;1098;22953;-76
2021/05/24 03:20:00;;;;;;;10.53;7.25;;;;;;;7.71;76.77;100848.19;128282;1101;22371;-77
2021/05/24 03:22:31;;;;;;;10.40;7.40;;;;;;;7.70;76.84;100857.88;128218;1101;23838;-78
2021/05/24 03:25:01;;;;;;;10.43;8.17;;;;;;;7.76;77.25;100862.59;128260;1098;24265;-76
2021/05/24 03:27:30;;;;;;;14.30;8.23;;;;;;;7.85;77.28;100865.36;128284;1101;22658;-76
2021/05/24 03:30:06;;;;;;;9.95;8.08;;;;;;;7.91;77.03;100863.01;128249;1101;22371;-76
2021/05/24 03:32:37;;;;;;;10.00;8.30;;;;;;;7.98;77.12;100868.55;128244;1101;22359;-76
2021/05/24 03:35:08;;;;;;;9.43;8.08;;;;;;;8.02;77.00;100868.13;128234;1098;22945;-77
2021/05/24 03:37:38;;;;;;;9.53;8.10;;;;;;;8.10;76.95;100864.00;128330;1098;22469;-76
2021/05/24 03:40:11;;;;;;;9.43;7.60;;;;;;;8.17;77.00;100857.20;128232;1098;24513;-77
2021/05/24 03:42:42;;;;;;;9.03;8.10;;;;;;;8.26;76.78;100864.23;128296;1101;22372;-76
2021/05/24 03:45:16;;;;;;;8.63;7.53;;;;;;;8.33;76.77;100867.98;128271;1100;22365;-76
2021/05/24 03:47:46;;;;;;;15.38;8.38;;;;;;;8.35;76.45;100857.30;128244;1101;22403;-77
2021/05/24 03:50:17;;;;;;;10.90;7.55;;;;;;;8.33;76.33;100864.50;128232;1101;22862;-76
2021/05/24 03:52:47;;;;;;;8.88;7.43;;;;;;;8.29;76.33;100863.95;128053;1100;22359;-76
2021/05/24 03:55:18;;;;;;;8.53;7.43;;;;;;;8.27;76.33;100863.28;128297;1101;22391;-76
2021/05/24 03:57:51;;;;;;;10.80;8.88;;;;;;;8.29;76.24;100866.59;128254;1101;22360;-76
2021/05/24 04:00:22;;;;;;;11.10;8.53;;;;;;;8.33;76.56;100856.61;128085;1101;22354;-75
2021/05/24 04:02:53;;;;;;;13.57;9.80;;;;;;;8.36;76.49;100854.52;128252;1098;25138;-75
2021/05/24 04:05:34;;;;;;;12.80;9.50;;;;;;;8.42;76.45;100853.98;128263;1098;24316;-75
2021/05/24 04:08:07;;;;;;;9.33;8.25;;;;;;;8.47;76.42;100849.14;128246;1101;22472;-75
2021/05/24 04:10:48;;;;;;;;;;;;;;;8.54;76.53;100853.84;128301;1098;25013;-76
2021/05/24 04:13:18;;;;;;;9.45;8.48;;;;;;;8.54;76.50;100854.67;128258;1101;21269;-76
2021/05/24 04:15:50;;;;;;;8.15;7.35;;;;;;;8.64;76.60;100857.28;128258;1101;22373;-76
2021/05/24 04:18:21;;;;;;;9.85;8.38;;;;;;;8.73;76.53;100853.80;128265;1101;22395;-76
2021/05/24 04:20:51;;;;;;;8.80;7.90;;;;;;;8.86;76.53;100867.48;128249;1101;22420;-75
2021/05/24 04:23:22;;;;;;;10.38;8.05;;;;;;;8.95;76.36;100861.33;128282;1101;22796;-76
2021/05/24 04:25:52;;;;;;;11.35;7.85;;;;;;;9.05;75.72;100866.56;128267;1101;22498;-75
2021/05/24 04:28:21;;;;;;;11.15;7.60;;;;;;;9.13;76.12;100865.83;128251;1100;22384;-77
2021/05/24 04:30:51;;;;;;;10.08;7.78;;;;;;;9.25;76.04;100867.30;128282;1098;24482;-77
2021/05/24 04:33:21;;;;;;;8.83;7.73;;;;;;;9.38;75.95;100862.52;128307;1101;22372;-77
2021/05/24 04:35:51;;;;;;;10.45;6.88;;;;;;;9.52;75.62;100862.99;128322;1098;24597;-76
2021/05/24 04:38:21;;;;;;;10.93;7.40;;;;;;;9.64;75.27;100861.81;128309;1101;22368;-76
2021/05/24 04:40:51;;;;;;;7.60;6.53;;;;;;;9.78;75.20;100866.56;128302;1098;24183;-76
2021/05/24 04:43:27;;;;;;;8.63;7.70;;;;;;;9.93;75.14;100876.59;128259;1101;22359;-76
2021/05/24 04:45:57;;;;;;;9.20;6.85;;;;;;;10.12;74.72;100887.00;128333;1098;24522;-75
2021/05/24 04:48:27;;;;;;;9.03;6.00;;;;;;;10.26;74.49;100883.02;128260;1101;22377;-76
2021/05/24 04:50:57;;;;;;;9.45;7.63;;;;;;;10.39;74.02;100885.27;128241;1101;22365;-76
2021/05/24 04:53:26;;;;;;;10.85;7.80;;;;;;;10.54;73.97;100879.28;128273;1101;22459;-76
2021/05/24 04:55:57;;;;;;;8.33;6.60;;;;;;;10.72;73.62;100879.23;128235;1101;22735;-76
2021/05/24 04:58:27;;;;;;;7.63;6.13;;;;;;;10.94;73.43;100892.92;128263;1101;22363;-77
2021/05/24 05:00:57;;;;;;;9.47;6.57;;;;;;;11.14;73.11;100889.05;128233;1100;22359;-76
2021/05/24 05:03:27;;;;;;;8.23;6.80;;;;;;;11.36;72.72;100894.75;128207;1098;24197;-77
2021/05/24 05:05:57;;;;;;;7.70;7.00;;;;;;;11.60;72.30;100897.50;128236;1098;22368;-77
2021/05/24 05:08:29;;;;;;;7.95;5.90;;;;;;;11.86;72.02;100905.38;128242;1098;24501;-76
2021/05/24 05:10:59;;;;;;;7.78;6.25;;;;;;;12.12;71.52;100907.87;127962;1101;24482;-76
2021/05/24 05:13:32;;;;;;;7.20;6.38;;;;;;;12.44;71.09;100911.53;127976;1101;22360;-77
2021/05/24 05:16:03;;;;;;;7.18;6.48;;;;;;;12.67;70.30;100903.73;127954;1101;24782;-76
2021/05/24 05:18:34;;;;;;;8.43;5.88;;;;;;;12.91;69.33;100901.02;127996;1104;22383;-76
2021/05/24 05:21:04;;;;;;;7.85;5.63;;;;;;;13.14;68.00;100903.78;127973;1104;22438;-77
2021/05/24 05:23:40;;;;;;;6.98;5.53;;;;;;;13.46;67.82;100903.84;127644;1104;22361;-78
2021/05/24 05:26:09;;;;;;;6.15;5.08;;;;;;;13.77;66.97;100914.48;127960;1105;22362;-78
2021/05/24 05:28:40;;;;;;;6.85;5.95;;;;;;;14.05;66.03;100906.83;127604;1105;22361;-77
2021/05/24 05:31:12;;;;;;;7.03;5.67;;;;;;;14.23;64.80;100909.17;127986;1104;22387;-77
2021/05/24 05:33:42;;;;;;;6.80;5.53;;;;;;;14.50;64.40;100915.80;127926;1101;23231;-77
2021/05/24 05:36:12;;;;;;;4.95;4.45;;;;;;;14.80;63.38;100914.87;128014;1104;22375;-77
2021/05/24 05:38:42;;;;;;;6.28;5.18;;;;;;;15.12;62.76;100914.69;127945;1104;22375;-77
2021/05/24 05:41:11;;;;;;;5.70;5.18;;;;;;;15.42;61.81;100915.50;127926;1104;22389;-76
2021/05/24 05:43:42;;;;;;;7.33;6.10;;;;;;;15.75;61.29;100914.08;127976;1101;24504;-77
2021/05/24 05:46:16;;;;;;;6.63;5.58;;;;;;;16.15;60.35;100917.16;128012;1102;22444;-78
2021/05/24 05:48:46;;;;;;;9.38;6.05;;;;;;;16.57;59.05;100922.67;128176;1101;22387;-77
2021/05/24 05:51:16;;;;;;;7.40;5.08;;;;;;;16.89;58.18;100923.94;128254;1101;22384;-77
2021/05/24 05:53:46;;;;;;;8.58;6.93;;;;;;;17.17;57.13;100929.27;128214;1101;23131;-76
2021/05/24 05:56:16;;;;;;;6.70;5.15;;;;;;;17.44;55.98;100932.06;128242;1098;24492;-77
2021/05/24 05:58:45;;;;;;;7.65;6.00;;;;;;;17.74;55.43;100927.25;127979;1105;22380;-77
2021/05/24 06:01:15;;;;;;;7.48;5.90;;;;;;;18.06;54.80;100923.02;127985;1101;24494;-78
2021/05/24 06:03:45;;;;;;;12.70;6.95;;;;;;;18.45;54.00;100927.59;127926;1101;22389;-77
2021/05/24 06:06:15;;;;;;;9.45;6.43;;;;;;;18.77;53.40;100944.72;127960;1101;22461;-77
2021/05/24 06:08:46;;;;;;;7.00;4.80;;;;;;;19.04;52.60;100948.17;127943;1104;22397;-78
2021/05/24 06:11:16;;;;;;;6.75;5.43;;;;;;;19.14;51.63;100938.89;127921;1101;22377;-78
2021/05/24 06:13:45;;;;;;;6.45;5.05;;;;;;;19.26;51.66;100950.62;127963;1105;22362;-77
2021/05/24 06:16:15;;;;;;;6.85;5.15;;;;;;;19.39;50.93;100944.37;127961;1101;22358;-78
2021/05/24 06:18:45;;;;;;;8.93;5.38;;;;;;;19.67;50.86;100947.59;128225;1101;22395;-77
2021/05/24 06:21:16;;;;;;;7.55;4.45;;;;;;;19.95;50.08;100954.46;128259;1101;22379;-79
2021/05/24 06:23:46;;;;;;;9.10;5.83;;;;;;;20.20;49.44;100958.03;128257;1098;22480;-78
2021/05/24 06:26:16;;;;;;;6.77;5.60;;;;;;;20.27;48.27;100966.03;128042;1101;22366;-77
2021/05/24 06:28:46;;;;;;;6.28;5.15;;;;;;;20.39;48.19;100964.31;128016;1101;22493;-77
2021/05/24 06:31:17;;;;;;;5.13;4.63;;;;;;;20.62;47.68;100960.22;128192;1102;22374;-79
2021/05/24 06:33:47;;;;;;;;;;;;;;;20.76;46.68;100959.09;128241;1101;22376;-77
2021/05/24 06:36:17;;;;;;;11.65;5.98;;;;;;;20.86;47.10;100967.47;128246;1098;23815;-78
2021/05/24 06:38:46;;;;;;;14.60;10.95;;;;;;;20.98;46.51;100969.41;128244;1101;22338;-77
2021/05/24 06:41:16;;;;;;;25.23;22.88;;;;;;;21.23;46.09;100961.33;128286;1101;23622;-78
2021/05/24 06:43:46;;;;;;;7.80;6.70;;;;;;;21.36;45.20;100962.02;128033;1100;22363;-78
2021/05/24 06:46:16;;;;;;;9.10;5.40;;;;;;;21.35;44.88;100965.73;128219;1098;22352;-78
2021/05/24 06:48:46;;;;;;;6.83;4.25;;;;;;;21.36;44.36;100961.20;128052;1098;24498;-77
2021/05/24 06:51:16;;;;;;;5.65;4.15;;;;;;;21.47;44.23;100965.83;128010;1102;22404;-78
2021/05/24 06:53:54;;;;;;;7.13;4.28;;;;;;;21.47;43.80;100963.13;128275;1101;22392;-77
2021/05/24 06:56:23;;;;;;;5.95;4.78;;;;;;;21.52;43.37;100965.95;128234;1101;22360;-77
2021/05/24 06:58:53;;;;;;;4.93;3.95;;;;;;;21.74;43.56;100957.43;128271;1098;22816;-78
2021/05/24 07:01:24;;;;;;;8.30;3.93;;;;;;;21.87;42.61;100957.25;128260;1101;22362;-77
2021/05/24 07:03:54;;;;;;;9.40;3.80;;;;;;;21.84;43.09;100961.21;128306;1100;22365;-77
2021/05/24 07:06:23;;;;;;;4.13;3.30;;;;;;;22.05;42.37;100954.50;127925;1104;22473;-78
2021/05/24 07:08:53;;;;;;;4.88;3.15;;;;;;;22.11;41.93;100954.65;127940;1101;22364;-78
2021/05/24 07:11:24;;;;;;;6.93;3.08;;;;;;;22.15;41.70;100955.83;127907;1104;22787;-77
2021/05/24 07:13:53;;;;;;;8.65;3.25;;;;;;;22.17;41.80;100951.08;127973;1101;24354;-77
2021/05/24 07:16:24;;;;;;;5.28;2.90;;;;;;;22.42;41.39;100957.08;127919;1104;22396;-76
2021/05/24 07:18:54;;;;;;;5.13;3.55;;;;;;;22.65;41.46;100953.60;127973;1101;22387;-77
2021/05/24 07:21:23;;;;;;;4.78;2.88;;;;;;;22.98;40.37;100961.13;127952;1104;22390;-79
2021/05/24 07:23:53;;;;;;;7.98;2.70;;;;;;;23.28;40.24;100962.86;128221;1104;22390;-78
2021/05/24 07:26:27;;;;;;;4.80;2.18;;;;;;;23.56;39.42;100962.11;127915;1104;22449;-78
2021/05/24 07:28:57;;;;;;;6.40;5.80;;;;;;;23.65;38.80;100960.66;127945;1105;22475;-78
2021/05/24 07:31:26;;;;;;;8.68;6.78;;;;;;;23.79;38.12;100961.25;127993;1102;22417;-78
2021/05/24 07:33:56;;;;;;;3.90;3.50;;;;;;;23.67;37.45;100969.34;128054;1101;22361;-78
2021/05/24 07:36:26;;;;;;;4.95;2.65;;;;;;;23.67;38.46;100976.62;127980;1104;22405;-78
2021/05/24 07:38:56;;;;;;;3.97;2.83;;;;;;;23.77;37.92;100974.15;127950;1105;22382;-78
2021/05/24 07:41:26;;;;;;;4.83;2.80;;;;;;;23.89;37.80;100966.84;127978;1103;22391;-77
2021/05/24 07:43:59;;;;;;;4.00;2.48;;;;;;;23.87;37.35;100971.64;127525;1107;22389;-79
2021/05/24 07:46:29;;;;;;;7.23;3.28;;;;;;;23.69;36.78;100974.52;127538;1104;24246;-78
2021/05/24 07:48:59;;;;;;;4.50;2.93;;;;;;;23.57;37.48;100979.11;127538;1108;22431;-78
2021/05/24 07:51:28;;;;;;;5.35;3.63;;;;;;;23.61;36.70;100966.78;127543;1107;22381;-78
2021/05/24 07:53:58;;;;;;;6.18;3.88;;;;;;;23.53;37.25;100953.69;127556;1105;22497;-78
2021/05/24 07:56:28;;;;;;;4.43;2.55;;;;;;;23.39;37.00;100964.73;127976;1104;22468;-78
2021/05/24 07:58:58;;;;;;;3.60;2.47;;;;;;;23.13;36.70;100949.08;127936;1104;22830;-78
2021/05/24 08:01:27;;;;;;;5.80;3.40;;;;;;;22.88;37.34;100939.33;127998;1101;22879;-78
2021/05/24 08:03:57;;;;;;;5.03;3.28;;;;;;;22.68;37.55;100941.55;128230;1101;22346;-78
2021/05/24 08:06:27;;;;;;;7.80;3.40;;;;;;;22.62;37.83;100947.87;128041;1098;22359;-77
2021/05/24 08:08:57;;;;;;;4.00;3.00;;;;;;;22.56;38.05;100941.56;128273;1098;25006;-78
2021/05/24 08:11:27;;;;;;;3.23;2.05;;;;;;;22.45;37.22;100945.03;128293;1098;22379;-79
2021/05/24 08:13:57;;;;;;;3.05;2.33;;;;;;;22.18;36.76;100937.38;127937;1105;22374;-77
2021/05/24 08:16:27;;;;;;;4.55;2.28;;;;;;;21.98;37.79;100934.95;127762;1101;22379;-78
2021/05/24 08:18:57;;;;;;;3.98;2.63;;;;;;;21.77;37.69;100935.47;127951;1101;25988;-78
2021/05/24 08:21:27;;;;;;;3.70;2.90;;;;;;;21.59;37.47;100949.74;127987;1101;22381;-77
2021/05/24 08:23:57;;;;;;;3.10;2.13;;;;;;;21.37;37.76;100938.66;127989;1101;24588;-78
2021/05/24 08:26:26;;;;;;;5.60;2.08;;;;;;;21.24;37.99;100919.97;127986;1104;22372;-78
2021/05/24 08:28:56;;;;;;;5.18;3.30;;;;;;;21.09;38.03;100912.26;128008;1101;24508;-78
2021/05/24 08:31:26;;;;;;;4.05;2.68;;;;;;;20.96;38.55;100925.83;128006;1102;22469;-78
2021/05/24 08:33:56;;;;;;;15.55;11.15;;;;;;;20.88;39.23;100922.39;128286;1101;22371;-78
2021/05/24 08:36:26;;;;;;;4.73;2.43;;;;;;;20.74;38.66;100918.20;128237;1101;22359;-78
2021/05/24 08:38:55;;;;;;;4.65;2.50;;;;;;;20.71;38.57;100926.70;128057;1098;22477;-78
2021/05/24 08:41:26;;;;;;;3.55;2.25;;;;;;;20.66;38.77;100911.27;128234;1101;22355;-76
2021/05/24 08:43:56;;;;;;;3.48;2.23;;;;;;;20.53;39.07;100908.70;128053;1101;22377;-76
2021/05/24 08:46:27;;;;;;;15.70;3.38;;;;;;;20.54;39.50;100920.25;128065;1102;22804;-77
2021/05/24 08:48:57;;;;;;;6.90;2.38;;;;;;;20.55;39.15;100920.02;128257;1101;22359;-76
2021/05/24 08:51:27;;;;;;;7.90;2.28;;;;;;;20.46;39.05;100910.59;128258;1098;24485;-77
2021/05/24 08:53:57;;;;;;;9.15;2.45;;;;;;;20.27;39.18;100909.70;128059;1101;22370;-77
2021/05/24 08:56:27;;;;;;;22.40;4.63;;;;;;;20.19;39.72;100894.70;127994;1098;24969;-77
2021/05/24 08:59:01;;;;;;;3.53;1.95;;;;;;;20.14;39.63;100893.70;128249;1098;22353;-77
2021/05/24 09:01:31;;;;;;;2.95;2.28;;;;;;;20.08;39.34;100895.38;128042;1101;22813;-78
2021/05/24 09:04:06;;;;;;;2.98;1.50;;;;;;;19.85;39.48;100898.63;128045;1102;22372;-78
2021/05/24 09:06:41;;;;;;;2.93;1.93;;;;;;;19.62;39.45;100891.09;128307;1098;22459;-77
2021/05/24 09:09:17;;;;;;;9.93;2.05;;;;;;;19.38;40.21;100881.93;127962;1104;22343;-78
2021/05/24 09:11:47;;;;;;;4.28;2.28;;;;;;;19.30;40.71;100873.33;128092;1104;22380;-79
2021/05/24 09:14:25;;;;;;;3.20;1.60;;;;;;;19.36;40.86;100885.84;127964;1104;22368;-79
2021/05/24 09:17:02;;;;;;;4.85;1.68;;;;;;;19.44;40.74;100888.30;128038;1100;24253;-79
2021/05/24 09:19:37;;;;;;;7.38;2.08;;;;;;;19.46;40.58;100897.78;127972;1104;22998;-78
2021/05/24 09:22:09;;;;;;;3.40;2.17;;;;;;;19.51;39.61;100889.91;127972;1104;22351;-78
2021/05/24 09:24:44;;;;;;;6.18;2.45;;;;;;;19.48;40.02;100910.95;127929;1104;22373;-78
2021/05/24 09:27:38;;;;;;;3.58;2.30;;;;;;;19.44;39.56;100899.02;128114;1103;22374;-78
2021/05/24 09:30:09;;;;;;;6.78;2.18;;;;;;;19.26;39.37;100900.54;128125;1098;24256;-78
2021/05/24 09:32:40;;;;;;;3.18;2.18;;;;;;;19.30;39.38;100900.94;128259;1101;22389;-78
2021/05/24 09:35:10;;;;;;;5.58;1.73;;;;;;;19.26;38.85;100911.25;128269;1101;22220;-77
2021/05/24 09:37:41;;;;;;;7.10;1.88;;;;;;;19.26;39.18;100900.54;128266;1101;22373;-77
2021/05/24 09:40:23;;;;;;;2.13;1.60;;;;;;;19.29;39.26;100899.27;128230;1101;22387;-78
2021/05/24 09:42:55;;;;;;;3.55;2.00;;;;;;;19.33;39.13;100899.70;128361;1098;24572;-77
2021/05/24 09:45:25;;;;;;;4.25;2.90;;;;;;;19.37;38.80;100892.88;127992;1101;22664;-78
2021/05/24 09:47:59;;;;;;;4.50;2.43;;;;;;;19.48;39.35;100894.88;128266;1101;22353;-78
2021/05/24 09:50:36;;;;;;;4.78;2.10;;;;;;;19.52;39.01;100880.83;127623;1104;23362;-78
2021/05/24 09:53:06;;;;;;;3.75;1.95;;;;;;;19.54;38.80;100880.63;127904;1105;22387;-78
2021/05/24 09:55:37;;;;;;;3.35;1.70;;;;;;;19.46;39.41;100867.46;127639;1104;22386;-79
2021/05/24 09:58:11;;;;;;;4.75;1.65;;;;;;;19.44;39.29;100867.69;128002;1104;22385;-78
2021/05/24 10:00:48;;;;;;;7.43;1.25;;;;;;;19.40;39.29;100871.84;128028;1105;22384;-78
2021/05/24 10:03:24;;;;;;;6.10;2.40;;;;;;;19.42;39.47;100858.22;127938;1104;22364;-77
2021/05/24 10:05:57;;;;;;;13.60;3.78;;;;;;;19.41;39.05;100854.72;127563;1107;22390;-77
2021/05/24 10:08:28;;;;;;;20.25;9.68;;;;;;;19.64;39.26;100854.22;127632;1101;24970;-78
2021/05/24 10:10:59;;;;;;;6.38;3.28;;;;;;;19.81;39.46;100851.84;127935;1104;22942;-76
2021/05/24 10:13:30;;;;;;;1.93;1.13;;;;;;;19.77;38.04;100849.82;127921;1101;24489;-77
2021/05/24 10:16:01;;;;;;;1.60;1.10;;;;;;;19.66;38.12;100845.95;127996;1104;22383;-77
2021/05/24 10:18:33;;;;;;;3.93;1.05;;;;;;;19.60;37.76;100857.52;128125;1101;24256;-77
2021/05/24 10:21:04;;;;;;;6.95;1.28;;;;;;;19.51;38.16;100855.08;128009;1104;23327;-77
2021/05/24 10:23:34;;;;;;;6.08;1.05;;;;;;;19.40;38.04;100854.95;127960;1104;22398;-77
2021/05/24 10:26:09;;;;;;;7.18;1.10;;;;;;;19.36;38.14;100853.70;127973;1101;22375;-77
2021/05/24 10:28:39;;;;;;;4.27;1.27;;;;;;;19.36;38.32;100849.20;127976;1104;22390;-78
2021/05/24 10:31:25;;;;;;;2.27;1.07;;;;;;;19.32;38.08;100839.09;128203;1101;22367;-77
2021/05/24 10:34:08;;;;;;;5.55;0.80;;;;;;;19.37;38.37;100837.44;128293;1101;22351;-78
2021/05/24 10:36:39;;;;;;;1.65;0.85;;;;;;;19.37;38.14;100826.72;128287;1101;22380;-78
2021/05/24 10:39:18;;;;;;;3.05;1.03;;;;;;;19.23;38.53;100823.28;128333;1101;22380;-78
2021/05/24 10:42:01;;;;;;;3.28;1.25;;;;;;;19.28;39.20;100828.81;128306;1098;22361;-78
2021/05/24 10:44:47;;;;;;;1.93;1.00;;;;;;;19.40;39.01;100814.76;128340;1098;24201;-77
2021/05/24 10:47:24;;;;;;;2.90;1.00;;;;;;;19.48;38.69;100809.13;128249;1098;25109;-78
2021/05/24 10:50:03;;;;;;;2.33;1.20;;;;;;;19.52;38.73;100818.38;128318;1101;22379;-77
2021/05/24 10:52:40;;;;;;;4.08;1.18;;;;;;;19.58;38.97;100816.70;128242;1101;22378;-78
2021/05/24 10:55:35;;;;;;;2.98;1.28;;;;;;;19.63;38.94;100806.17;128068;1104;22373;-78
2021/05/24 10:58:16;;;;;;;4.13;1.00;;;;;;;19.61;38.76;100811.73;128415;1101;24612;-78
2021/05/24 11:01:03;;;;;;;4.38;1.10;;;;;;;19.57;38.98;100797.13;128179;1101;22375;-78
2021/05/24 11:03:33;;;;;;;3.73;0.98;;;;;;;19.62;39.25;100799.15;127709;1105;22389;-79
2021/05/24 11:06:16;;;;;;;2.18;0.90;;;;;;;19.62;38.72;100785.75;128025;1101;25121;-79
2021/05/24 11:09:06;;;;;;;3.57;0.97;;;;;;;19.60;38.72;100783.30;128047;1105;22380;-78
2021/05/24 11:11:39;;;;;;;1.90;0.90;;;;;;;19.68;38.54;100772.33;128060;1101;24501;-84
2021/05/24 11:14:10;;;;;;;4.18;1.20;;;;;;;19.73;38.36;100783.23;128285;1102;22361;-84
2021/05/24 11:16:58;;;;;;;3.25;0.90;;;;;;;19.69;37.72;100778.51;128366;1098;22384;-83
2021/05/24 11:19:30;;;;;;;7.53;0.93;;;;;;;19.71;37.57;100776.45;128340;1098;22367;-81
2021/05/24 11:22:35;;;;;;;5.80;1.28;;;;;;;19.69;37.69;100774.00;128114;1101;22383;-80
2021/05/24 11:28:14;;;;;;;10.78;1.60;;;;;;;19.71;37.55;100774.58;128011;1104;22387;-82
2021/05/24 11:31:24;;;;;;;9.20;1.95;;;;;;;19.74;36.99;100760.75;127963;1105;22909;-83
2021/05/24 11:33:57;;;;;;;19.23;2.98;;;;;;;19.90;37.54;100766.62;128234;1104;22360;-82
2021/05/24 11:36:35;;;;;;;9.68;2.10;;;;;;;19.99;37.19;100762.59;128016;1105;22362;-81
2021/05/24 11:39:16;;;;;;;10.88;2.80;;;;;;;20.02;37.84;100769.39;128306;1104;22660;-84
2021/05/24 11:42:04;;;;;;;1.73;0.80;;;;;;;20.06;37.67;100766.06;128264;1101;22371;-82